ADDS METAR Data INFO
IDs: Format: Raw Decoded Include TAF

Data at: 0316 UTC 20 Jul 2018

KTRM 200252Z AUTO 15006KT 10SM CLR 38/19 A2973 RMK AO2 SLP071 T03780194 53002
KTRM 200152Z AUTO 14011KT 10SM CLR 39/18 A2971 RMK AO2 SLP063 T03940183
KTRM 200052Z AUTO 14010KT 10SM CLR 41/19 A2970 RMK AO2 SLP061 T04060189
KTRM 192352Z AUTO 12010G15KT 10SM CLR 42/18 A2973 RMK AO2 SLP069 T04170183 10422 20367 58034
KTRM 192052Z AUTO 12010G16KT 090V160 10SM CLR 42/16 A2983 RMK AO2 SLP103 T04170161 58025
KTRM 181952Z AUTO 18008KT 10SM CLR 39/22 A2990 RMK AO2 SLP129 T03890222
KTRM 181852Z AUTO VRB05KT 10SM BKN043 37/23 A2994 RMK AO2 SLP140 T03670228
KTRM 181752Z AUTO VRB04KT 10SM CLR 35/23 A2995 RMK AO2 SLP144 60000 T03500233 10350 20289 50001
KTRM 181652Z AUTO 17005KT 10SM FEW028 SCT034 33/24 A2996 RMK AO2 SLP149 T03330244
KTRM 181626Z AUTO 14008KT 10SM FEW025 SCT037 33/24 A2996 RMK AO2 T03330244
KTRM 181612Z AUTO 13008KT 10SM BKN024 BKN037 33/24 A2997 RMK AO2 T03280244
KTRM 181552Z AUTO 11008KT 10SM SCT024 33/24 A2997 RMK AO2 SLP150 T03280244